Bookmark and Share
Track history (hours):
 

Soterion

Last reported at 2013-Jul-15 17:16 UTC. Time now 2014-Apr-18 00:21 UTC.
Position N 18°23' W 064°41'.
Warning: this ship's position is months out of date.

Length 17 m.

Type: Sailing vessel. MMSI: 378187000.

NotesDate/timePositionNaut miles runAvg speedWind from/ knotsBaromVisibWave heightAir tempDewpointWater temp
2013-Jul-15 17:16N 18°23' W 064°41'2 1.5
2013-Jul-15 16:10N 18°23' W 064°43'4 6.0
2013-Jul-15 15:33N 18°21' W 064°46'5 4.4
2013-Jul-15 14:27N 18°19' W 064°51'0 0.0
2013-Jul-15 13:33N 18°19' W 064°51'1 1.2
2013-Jul-15 12:26N 18°19' W 064°50'0 0.0
2013-Jul-15 11:32N 18°19' W 064°50'0 0.0
2013-Jul-15 10:32N 18°19' W 064°50'0 0.0
2013-Jul-15 09:32N 18°19' W 064°50'0 0.0
2013-Jul-15 08:32N 18°19' W 064°50'0 0.0
2013-Jul-15 07:32N 18°19' W 064°50'0 0.0
2013-Jul-15 06:26N 18°19' W 064°50'0 0.0
2013-Jul-15 05:32N 18°19' W 064°50'0 0.0
2013-Jul-15 04:32N 18°19' W 064°50'0 0.0
2013-Jul-15 03:32N 18°19' W 064°50'0 0.0
2013-Jul-15 02:32N 18°19' W 064°50'0 0.0
2013-Jul-15 01:32N 18°19' W 064°50'0 0.0
2013-Jul-15 00:32N 18°19' W 064°50'0 0.0
2013-Jul-14 23:32N 18°19' W 064°50'0 0.0
2013-Jul-14 22:32N 18°19' W 064°50'0 0.0
2013-Jul-14 21:20N 18°19' W 064°50'0 0.0
2013-Jul-14 20:33N 18°19' W 064°50'0 0.0
2013-Jul-14 19:33N 18°19' W 064°50'0 0.0
2013-Jul-14 18:27N 18°19' W 064°50'0 0.0
2013-Jul-14 17:33N 18°19' W 064°50'0 0.0
2013-Jul-14 16:33N 18°19' W 064°50'0 0.0
2013-Jul-14 15:33N 18°19' W 064°50'0 0.0
2013-Jul-14 14:27N 18°19' W 064°50'0 0.0
2013-Jul-14 13:33N 18°19' W 064°50'0 0.0
2013-Jul-14 12:33N 18°19' W 064°50'0 0.0
2013-Jul-14 11:27N 18°19' W 064°50'0 0.0
2013-Jul-14 10:33N 18°19' W 064°50'0 0.0
2013-Jul-14 09:33N 18°19' W 064°50'0 0.0
2013-Jul-14 08:33N 18°19' W 064°50'0 0.0
2013-Jul-14 07:21N 18°19' W 064°50'0 0.0
2013-Jul-14 06:33N 18°19' W 064°50'0 0.0
2013-Jul-14 05:33N 18°19' W 064°50'0 0.0
2013-Jul-14 04:33N 18°19' W 064°50'0 0.0
2013-Jul-14 03:21N 18°19' W 064°50'0 0.0
2013-Jul-14 02:33N 18°19' W 064°50'0 0.0
2013-Jul-14 01:33N 18°19' W 064°50'0 0.0
2013-Jul-14 00:33N 18°19' W 064°50'0 0.0
2013-Jul-13 23:27N 18°19' W 064°50'0 0.0
2013-Jul-13 22:33N 18°19' W 064°50'0 0.0
2013-Jul-13 21:27N 18°19' W 064°50'0 0.1
2013-Jul-13 20:23N 18°19' W 064°50'0 0.0
2013-Jul-13 19:23N 18°19' W 064°50'1 1.5
2013-Jul-13 18:30N 18°19' W 064°49'2 1.7
2013-Jul-13 17:30N 18°20' W 064°48'0 0.0
2013-Jul-13 16:30N 18°20' W 064°48'1 0.6
2013-Jul-13 15:33N 18°20' W 064°48'2 1.9
2013-Jul-13 14:27N 18°19' W 064°46'0 0.0
2013-Jul-13 02:25N 18°19' W 064°46'0 0.0
2013-Jul-13 01:31N 18°19' W 064°46'0 0.0
2013-Jul-13 00:31N 18°19' W 064°46'0 0.0
2013-Jul-12 23:31N 18°19' W 064°46'0 0.0
2013-Jul-12 22:31N 18°19' W 064°46'0 0.0
2013-Jul-12 21:25N 18°19' W 064°46'2 0.5
2013-Jul-12 16:34N 18°19' W 064°43'3 2.5
2013-Jul-12 15:33N 18°18' W 064°41'3 2.9
2013-Jul-12 14:25N 18°19' W 064°37'0 0.2
2013-Jul-12 13:06N 18°19' W 064°37'0 0.0
2013-Jul-12 12:12N 18°19' W 064°37'0 0.0
2013-Jul-12 11:18N 18°19' W 064°37'0 0.0
2013-Jul-12 07:30N 18°19' W 064°37'0 0.0
2013-Jul-12 06:18N 18°19' W 064°37'0 0.0
2013-Jul-12 05:06N 18°19' W 064°37'0 0.0
2013-Jul-12 04:24N 18°19' W 064°37'0 0.0
2013-Jul-12 01:24N 18°19' W 064°37'0 0.0
2013-Jul-11 23:16N 18°19' W 064°37'8 0.2
2013-Jul-10 13:32N 18°27' W 064°39'1 0.1
2013-Jul-09 17:16N 18°26' W 064°40'3 4.4
2013-Jul-09 16:33N 18°25' W 064°43'2 2.4
2013-Jul-09 15:31N 18°23' W 064°42'0 0.0
2013-Jul-09 14:25N 18°23' W 064°42'2 2.4
2013-Jul-09 13:30N 18°23' W 064°44'1 0.9
2013-Jul-09 12:24N 18°22' W 064°45'0 0.0
2013-Jul-09 11:24N 18°22' W 064°45'0 0.0
2013-Jul-09 10:25N 18°22' W 064°45'0 0.0
2013-Jul-09 09:31N 18°22' W 064°45'0 0.0
2013-Jul-09 08:31N 18°22' W 064°45'0 0.0
2013-Jul-09 07:07N 18°22' W 064°45'0 0.0
2013-Jul-09 06:25N 18°22' W 064°45'0 0.0
2013-Jul-09 05:25N 18°22' W 064°45'0 0.0
2013-Jul-09 04:31N 18°22' W 064°45'0 0.0
2013-Jul-09 03:31N 18°22' W 064°45'0 0.0
2013-Jul-09 01:31N 18°22' W 064°45'0 0.0
2013-Jul-09 00:25N 18°22' W 064°45'0 0.0
2013-Jul-08 23:25N 18°22' W 064°45'0 0.0
2013-Jul-08 22:31N 18°22' W 064°45'1 0.6
2013-Jul-08 21:31N 18°22' W 064°45'1 1.5
2013-Jul-08 20:30N 18°21' W 064°47'2 2.2
2013-Jul-08 19:31N 18°19' W 064°48'2 1.8
2013-Jul-08 18:30N 18°19' W 064°46'0 0.0
2013-Jul-08 17:30N 18°19' W 064°46'0 0.0
2013-Jul-08 16:30N 18°19' W 064°46'0 0.0
2013-Jul-08 15:24N 18°19' W 064°46'0 0.0
2013-Jul-08 14:30N 18°19' W 064°46'0 0.0
2013-Jul-08 12:24N 18°19' W 064°46'0 0.0
2013-Jul-08 11:06N 18°19' W 064°46'0 0.0
2013-Jul-08 10:30N 18°19' W 064°46'0 0.0
2013-Jul-08 09:30N 18°19' W 064°46'0 0.0
2013-Jul-08 08:30N 18°19' W 064°46'0 0.0
2013-Jul-08 07:30N 18°19' W 064°46'0 0.0
2013-Jul-08 06:30N 18°19' W 064°46'0 0.0
2013-Jul-08 05:30N 18°19' W 064°46'0 0.0
2013-Jul-08 04:30N 18°19' W 064°46'0 0.0
2013-Jul-08 03:30N 18°19' W 064°46'0 0.0
2013-Jul-08 02:30N 18°19' W 064°46'0 0.0
2013-Jul-08 00:30N 18°19' W 064°46'0 0.0
2013-Jul-07 23:30N 18°19' W 064°46'0 0.0
2013-Jul-07 22:30N 18°19' W 064°46'1 0.5
2013-Jul-07 21:33N 18°19' W 064°47'4 4.3
2013-Jul-07 20:30N 18°19' W 064°51'0 0.0
2013-Jul-07 19:24N 18°19' W 064°51'0 0.0
2013-Jul-07 18:24N 18°19' W 064°51'0 0.0
2013-Jul-07 17:30N 18°19' W 064°51'0 0.0
2013-Jul-07 16:30N 18°19' W 064°51'0 0.0
2013-Jul-07 15:30N 18°19' W 064°51'0 0.0
2013-Jul-07 14:24N 18°19' W 064°51'0 0.0
2013-Jul-07 13:30N 18°19' W 064°51'0 0.0
2013-Jul-07 12:30N 18°19' W 064°51'0 0.0
2013-Jul-07 11:30N 18°19' W 064°51'0 0.0
2013-Jul-07 10:30N 18°19' W 064°51'0 0.0
2013-Jul-07 09:30N 18°19' W 064°51'0 0.0
2013-Jul-07 08:30N 18°19' W 064°51'0 0.0
2013-Jul-07 07:31N 18°19' W 064°51'0 0.0
2013-Jul-07 05:31N 18°19' W 064°51'0 0.0
2013-Jul-07 04:31N 18°19' W 064°51'0 0.0
2013-Jul-07 03:31N 18°19' W 064°51'0 0.0
2013-Jul-07 02:31N 18°19' W 064°51'0 0.0
2013-Jul-07 01:31N 18°19' W 064°51'0 0.0
2013-Jul-07 00:31N 18°19' W 064°51'0 0.0
2013-Jul-06 23:31N 18°19' W 064°51'0 0.0
2013-Jul-06 21:31N 18°19' W 064°51'0 0.0
2013-Jul-06 20:31N 18°19' W 064°51'0 0.0
2013-Jul-06 19:31N 18°19' W 064°51'0 0.0
2013-Jul-06 18:31N 18°19' W 064°51'0 0.0
2013-Jul-06 17:31N 18°19' W 064°51'0 0.0
2013-Jul-06 16:31N 18°19' W 064°51'0 0.0
2013-Jul-06 15:31N 18°19' W 064°51'1 1.3
2013-Jul-06 14:33N 18°20' W 064°50'  

Dump ship's entire track history

sailing weather and tide predictions

Soterion — ZJL7065 — position and weather